Mezhdurechenskiy, Russia
Current Conditions -  °F | °C
As of 8:00 AM on Wednesday 22 Oct 2014 (Local Time) from USHH Reporting Station
Broken Clouds Broken Clouds  
Wind Chill: -11°   Ceiling: 8000
Heat Index:   Visibility: 6mi
Dew Point: -2°   Wind: 7mph
Humidity: 85%   Direction: 250°WSW
Pressure: 29.85"   Gusts: NA
Location:  59.6°N, 65.93°E
Report Text: USHH 220300Z 25003MPS 9999 FEW033 BKN080 M17/M19 Q1011 TEMPO2000 BR BKN005 RMK QFE754 24////50
Loading
Personal Weather Stations






























Interactive Weather Map
Tropical Storm Tracking
New forecast layout! Learn more

10-Day Weather Forecast

Advertisements
Track Severe Weather on mobile